createdAt,value
2019-02-17T00:02:11.531Z,0.60
2019-02-17T00:04:40.528Z,0.60
2019-02-17T00:07:09.555Z,0.60
2019-02-17T00:09:38.879Z,0.60
2019-02-17T00:12:07.882Z,0.60
2019-02-17T00:14:36.829Z,0.60
2019-02-17T00:17:05.861Z,0.50
2019-02-17T00:19:34.807Z,0.50
2019-02-17T00:22:04.149Z,0.50
2019-02-17T00:24:33.110Z,0.50
2019-02-17T00:27:02.137Z,0.50
2019-02-17T00:29:31.083Z,0.40
2019-02-17T00:32:00.019Z,0.40
2019-02-17T00:34:29.030Z,0.40
2019-02-17T00:36:58.040Z,0.40
2019-02-17T00:39:27.050Z,0.50
2019-02-17T00:41:56.172Z,0.50
2019-02-17T00:44:25.402Z,0.50
2019-02-17T00:46:54.369Z,0.50
2019-02-17T00:49:23.391Z,0.40
2019-02-17T00:51:52.347Z,0.40
2019-02-17T00:54:21.310Z,0.40
2019-02-17T00:56:50.247Z,0.40
2019-02-17T00:59:19.618Z,0.40
2019-02-17T01:01:48.615Z,0.40
2019-02-17T01:04:17.838Z,0.40
2019-02-17T01:06:46.778Z,0.40
2019-02-17T01:09:15.719Z,0.30
2019-02-17T01:11:44.572Z,0.30
2019-02-17T01:14:13.526Z,0.30
2019-02-17T01:16:42.440Z,0.20
2019-02-17T01:19:11.386Z,0.20
2019-02-17T01:21:40.367Z,0.20
2019-02-17T01:24:09.332Z,0.10
2019-02-17T01:26:38.327Z,0.10
2019-02-17T01:29:07.286Z,0.10
2019-02-17T01:31:36.824Z,0.10
2019-02-17T01:34:10.131Z,0.10
2019-02-17T01:36:39.148Z,0.10
2019-02-17T01:39:08.362Z,0.10
2019-02-17T01:41:37.619Z,0.20
2019-02-17T01:44:06.617Z,0.20
2019-02-17T01:46:38.384Z,0.30
2019-02-17T01:49:07.023Z,0.30
2019-02-17T01:51:35.971Z,0.30
2019-02-17T01:54:05.039Z,0.20
2019-02-17T01:56:34.363Z,0.10
2019-02-17T01:59:03.714Z,0.10
2019-02-17T02:01:32.739Z,0.10
2019-02-17T02:04:01.746Z,0.00
2019-02-17T02:06:30.635Z,0.10
2019-02-17T02:08:59.555Z,0.00
2019-02-17T02:11:28.642Z,0.10
2019-02-17T02:13:57.891Z,0.00
2019-02-17T02:16:26.927Z,0.00
2019-02-17T02:18:55.929Z,-0.10
2019-02-17T02:21:24.873Z,-0.20
2019-02-17T02:23:54.108Z,-0.20
2019-02-17T02:26:23.065Z,-0.20
2019-02-17T02:28:52.007Z,-0.20
2019-02-17T02:31:20.984Z,-0.20
2019-02-17T02:33:50.209Z,-0.10
2019-02-17T02:36:19.524Z,-0.10
2019-02-17T02:38:48.469Z,-0.20
2019-02-17T02:41:17.418Z,-0.20
2019-02-17T02:43:46.378Z,-0.20
2019-02-17T02:46:15.466Z,-0.20
2019-02-17T02:48:44.752Z,-0.20
2019-02-17T02:51:13.774Z,-0.20
2019-02-17T02:53:42.719Z,-0.20
2019-02-17T02:56:11.666Z,-0.30
2019-02-17T02:58:40.641Z,-0.30
2019-02-17T03:01:10.966Z,-0.30
2019-02-17T03:03:39.875Z,-0.30
2019-02-17T03:06:16.261Z,-0.30
2019-02-17T03:08:45.259Z,-0.30
2019-02-17T03:11:14.294Z,-0.40
2019-02-17T03:13:43.211Z,-0.40
2019-02-17T03:16:12.161Z,-0.40
2019-02-17T03:18:41.135Z,-0.40
2019-02-17T03:21:10.116Z,-0.50
2019-02-17T03:23:39.085Z,-0.50
2019-02-17T03:26:08.408Z,-0.50
2019-02-17T03:28:37.604Z,-0.40
2019-02-17T03:31:06.560Z,-0.50
2019-02-17T03:33:35.485Z,-0.50
2019-02-17T03:36:04.506Z,-0.40
2019-02-17T03:38:33.516Z,-0.50
2019-02-17T03:41:02.818Z,-0.40
2019-02-17T03:43:32.130Z,-0.40
2019-02-17T03:46:01.595Z,-0.50
2019-02-17T03:48:30.629Z,-0.50
2019-02-17T03:50:59.570Z,-0.50
2019-02-17T03:53:28.518Z,-0.50
2019-02-17T03:55:57.519Z,-0.50
2019-02-17T03:58:26.555Z,-0.50
2019-02-17T04:00:55.474Z,-0.60
2019-02-17T04:03:24.641Z,-0.60
2019-02-17T04:05:53.644Z,-0.60
2019-02-17T04:08:22.578Z,-0.60
2019-02-17T04:10:51.493Z,-0.60
2019-02-17T04:13:20.506Z,-0.70
2019-02-17T04:15:49.596Z,-0.70
2019-02-17T04:18:18.529Z,-0.70
2019-02-17T04:20:47.543Z,-0.70
2019-02-17T04:23:16.527Z,-0.70
2019-02-17T04:25:45.519Z,-0.80
2019-02-17T04:28:14.583Z,-0.80
2019-02-17T04:30:43.876Z,-0.90
2019-02-17T04:33:12.818Z,-0.90
2019-02-17T04:35:41.754Z,-0.90
2019-02-17T04:38:10.762Z,-0.80
2019-02-17T04:40:39.691Z,-0.90
2019-02-17T04:43:08.631Z,-0.80
2019-02-17T04:45:37.823Z,-0.90
2019-02-17T04:48:06.767Z,-0.90
2019-02-17T04:50:35.722Z,-1.00
2019-02-17T04:53:04.970Z,-0.90
2019-02-17T04:55:34.237Z,-1.00
2019-02-17T04:58:03.262Z,-1.00
2019-02-17T05:00:39.459Z,-1.00
2019-02-17T05:03:03.101Z,-1.00
2019-02-17T05:05:32.086Z,-0.90
2019-02-17T05:08:01.034Z,-0.90
2019-02-17T05:10:29.964Z,-0.90
2019-02-17T05:12:59.203Z,-0.90
2019-02-17T05:15:28.131Z,-0.90
2019-02-17T05:17:57.136Z,-0.80
2019-02-17T05:20:26.058Z,-0.80
2019-02-17T05:22:55.070Z,-0.80
2019-02-17T05:25:24.091Z,-0.90
2019-02-17T05:27:53.349Z,-0.90
2019-02-17T05:30:22.580Z,-0.90
2019-02-17T05:32:51.866Z,-1.00
2019-02-17T05:35:20.773Z,-1.00
2019-02-17T05:37:49.778Z,-1.00
2019-02-17T05:40:18.946Z,-1.00
2019-02-17T05:42:47.978Z,-1.00
2019-02-17T05:45:16.901Z,-1.00
2019-02-17T05:47:45.832Z,-1.00
2019-02-17T05:50:14.770Z,-1.00
2019-02-17T05:52:43.724Z,-1.00
2019-02-17T05:55:12.633Z,-1.00
2019-02-17T05:57:41.551Z,-1.00
2019-02-17T06:00:12.395Z,-1.00
2019-02-17T06:02:41.606Z,-1.00
2019-02-17T06:05:10.631Z,-1.00
2019-02-17T06:07:39.555Z,-1.00
2019-02-17T06:10:08.880Z,-1.00
2019-02-17T06:12:37.883Z,-1.00
2019-02-17T06:15:06.908Z,-1.00
2019-02-17T06:17:35.812Z,-1.00
2019-02-17T06:20:05.349Z,-1.00
2019-02-17T06:22:34.577Z,-1.00
2019-02-17T06:25:03.496Z,-0.90
2019-02-17T06:27:32.428Z,-0.90
2019-02-17T06:30:01.626Z,-0.90
2019-02-17T06:32:30.595Z,-1.00
2019-02-17T06:34:59.568Z,-1.00
2019-02-17T06:37:28.480Z,-0.90
2019-02-17T06:39:57.421Z,-0.80
2019-02-17T06:42:26.439Z,-0.80
2019-02-17T06:44:55.887Z,-0.70
2019-02-17T06:47:29.079Z,-0.60
2019-02-17T06:49:58.027Z,-0.50
2019-02-17T06:52:26.937Z,-0.30
2019-02-17T06:55:06.493Z,-0.30
2019-02-17T06:57:38.890Z,-0.20
2019-02-17T07:00:15.222Z,-0.10
2019-02-17T07:02:44.139Z,0.10
2019-02-17T07:05:32.178Z,0.20
2019-02-17T07:08:01.213Z,0.30
2019-02-17T07:10:30.164Z,0.50
2019-02-17T07:12:59.075Z,0.60
2019-02-17T07:15:28.023Z,0.80
2019-02-17T07:17:59.051Z,0.90
2019-02-17T07:20:27.542Z,1.10
2019-02-17T07:22:56.718Z,1.30
2019-02-17T07:25:30.051Z,1.60
2019-02-17T07:27:56.293Z,1.80
2019-02-17T07:30:25.409Z,1.90
2019-02-17T07:32:54.342Z,2.10
2019-02-17T07:35:23.287Z,2.30
2019-02-17T07:37:52.222Z,2.60
2019-02-17T07:40:21.497Z,3.00
2019-02-17T07:42:50.370Z,3.20
2019-02-17T07:45:19.694Z,3.40
2019-02-17T07:47:48.642Z,3.80
2019-02-17T07:50:17.582Z,4.30
2019-02-17T07:52:46.516Z,5.00
2019-02-17T07:55:15.747Z,5.70
2019-02-17T07:57:44.995Z,6.20
2019-02-17T08:00:14.503Z,6.70
2019-02-17T08:02:43.494Z,6.80
2019-02-17T08:05:12.682Z,6.40
2019-02-17T08:07:41.918Z,6.00
2019-02-17T08:10:11.292Z,5.60
2019-02-17T08:12:40.281Z,5.50
2019-02-17T08:15:09.748Z,5.30
2019-02-17T08:17:38.653Z,5.20
2019-02-17T08:20:08.700Z,5.20
2019-02-17T08:22:37.979Z,5.30
2019-02-17T08:25:07.105Z,5.40
2019-02-17T08:27:36.034Z,5.50
2019-02-17T08:30:05.969Z,5.50
2019-02-17T08:32:35.205Z,5.60
2019-02-17T08:35:04.359Z,5.60
2019-02-17T08:37:33.866Z,5.70
2019-02-17T08:40:03.166Z,5.80
2019-02-17T08:42:32.111Z,5.90
2019-02-17T08:45:01.062Z,6.00
2019-02-17T08:47:29.990Z,6.20
2019-02-17T08:49:58.870Z,6.30
2019-02-17T08:52:27.782Z,6.40
2019-02-17T08:54:57.127Z,6.60
2019-02-17T08:57:26.136Z,6.70
2019-02-17T08:59:55.158Z,6.80
2019-02-17T09:02:24.062Z,7.00
2019-02-17T09:04:53.034Z,7.40
2019-02-17T09:07:22.044Z,7.60
2019-02-17T09:09:50.971Z,8.20
2019-02-17T09:12:19.926Z,9.40
2019-02-17T09:14:48.796Z,10.70
2019-02-17T09:17:17.743Z,11.50
2019-02-17T09:19:46.693Z,11.50
2019-02-17T09:22:15.799Z,11.10
2019-02-17T09:24:44.875Z,11.50
2019-02-17T09:27:13.888Z,12.30
2019-02-17T09:29:43.140Z,12.90
2019-02-17T09:32:16.299Z,13.20
2019-02-17T09:34:43.034Z,13.40
2019-02-17T09:37:12.492Z,13.50
2019-02-17T09:39:41.443Z,13.60
2019-02-17T09:42:12.827Z,13.40
2019-02-17T09:44:41.851Z,13.30
2019-02-17T09:47:10.908Z,13.20
2019-02-17T09:49:39.856Z,13.00
2019-02-17T09:52:09.165Z,12.90
2019-02-17T09:54:38.148Z,12.70
2019-02-17T09:57:07.192Z,12.40
2019-02-17T09:59:36.118Z,12.20
2019-02-17T10:02:05.422Z,12.00
2019-02-17T10:04:34.619Z,11.70
2019-02-17T10:07:03.619Z,11.30
2019-02-17T10:09:33.079Z,10.90
2019-02-17T10:12:02.057Z,10.70
2019-02-17T10:14:31.026Z,10.60
2019-02-17T10:17:00.066Z,10.50
2019-02-17T10:19:28.946Z,10.50
2019-02-17T10:21:57.915Z,10.50
2019-02-17T10:24:26.869Z,10.50
2019-02-17T10:26:56.373Z,10.60
2019-02-17T10:29:25.446Z,10.80
2019-02-17T10:31:54.418Z,11.00
2019-02-17T10:34:23.377Z,11.10
2019-02-17T10:36:52.677Z,11.10
2019-02-17T10:39:21.959Z,11.20
2019-02-17T10:41:51.044Z,11.30
2019-02-17T10:44:20.061Z,11.50
2019-02-17T10:46:49.066Z,11.70
2019-02-17T10:49:19.397Z,11.80
2019-02-17T10:51:48.766Z,12.00
2019-02-17T10:54:17.851Z,12.20
2019-02-17T10:56:46.837Z,12.40
2019-02-17T10:59:15.858Z,12.60
2019-02-17T11:01:45.189Z,12.70
2019-02-17T11:04:14.150Z,12.60
2019-02-17T11:06:43.107Z,12.70
2019-02-17T11:09:23.201Z,12.80
2019-02-17T11:11:52.535Z,12.80
2019-02-17T11:14:21.863Z,12.90
2019-02-17T11:16:51.671Z,13.10
2019-02-17T11:19:20.682Z,13.30
2019-02-17T11:21:49.682Z,13.40
2019-02-17T11:24:18.706Z,13.60
2019-02-17T11:26:47.643Z,13.70
2019-02-17T11:29:16.593Z,13.90
2019-02-17T11:31:45.487Z,14.20
2019-02-17T11:34:14.502Z,14.30
2019-02-17T11:36:43.451Z,14.50
2019-02-17T11:39:18.453Z,14.60
2019-02-17T11:41:47.487Z,14.70
2019-02-17T11:44:16.552Z,14.80
2019-02-17T11:46:45.753Z,14.80
2019-02-17T11:49:14.754Z,14.90
2019-02-17T11:51:43.688Z,15.00
2019-02-17T11:54:12.919Z,15.10
2019-02-17T11:56:42.342Z,15.10
2019-02-17T11:59:11.226Z,15.20
2019-02-17T12:01:40.807Z,15.10
2019-02-17T12:04:10.050Z,15.00
2019-02-17T12:06:39.698Z,15.00
2019-02-17T12:09:08.998Z,15.10
2019-02-17T12:11:40.592Z,15.20
2019-02-17T12:14:09.803Z,15.20
2019-02-17T12:16:39.588Z,15.30
2019-02-17T12:19:08.660Z,15.30
2019-02-17T12:21:51.317Z,15.40
2019-02-17T12:24:23.001Z,15.40
2019-02-17T12:27:23.250Z,15.60
2019-02-17T12:30:03.004Z,15.60
2019-02-17T12:32:32.236Z,15.70
2019-02-17T12:35:01.261Z,15.80
2019-02-17T12:37:30.197Z,15.80
2019-02-17T12:39:59.159Z,15.90
2019-02-17T12:42:28.106Z,16.00
2019-02-17T12:44:57.274Z,16.00
2019-02-17T12:47:26.226Z,16.00
2019-02-17T12:49:55.147Z,16.00
2019-02-17T12:52:24.674Z,16.00
2019-02-17T12:54:53.631Z,16.10
2019-02-17T12:57:22.558Z,16.00
2019-02-17T12:59:51.678Z,16.00
2019-02-17T13:02:20.610Z,16.10
2019-02-17T13:04:49.582Z,16.10
2019-02-17T13:07:18.540Z,16.10
2019-02-17T13:09:48.009Z,16.20
2019-02-17T13:12:16.983Z,16.20
2019-02-17T13:14:46.083Z,16.20
2019-02-17T13:17:15.078Z,16.10
2019-02-17T13:19:44.265Z,16.10
2019-02-17T13:22:13.279Z,16.20
2019-02-17T13:24:42.234Z,16.20
2019-02-17T13:27:11.456Z,16.20
2019-02-17T13:29:40.422Z,16.20
2019-02-17T13:32:09.605Z,16.10
2019-02-17T13:34:38.558Z,16.20
2019-02-17T13:37:07.463Z,16.20
2019-02-17T13:39:36.427Z,16.20
2019-02-17T13:42:05.689Z,16.20
2019-02-17T13:44:34.576Z,16.20
2019-02-17T13:47:03.799Z,16.10
2019-02-17T13:49:32.799Z,16.10
2019-02-17T13:52:01.743Z,16.10
2019-02-17T13:54:30.679Z,16.00
2019-02-17T13:56:59.639Z,16.00
2019-02-17T13:59:28.583Z,15.90
2019-02-17T14:01:57.533Z,15.80
2019-02-17T14:04:26.665Z,15.80
2019-02-17T14:06:55.667Z,15.80
2019-02-17T14:09:24.937Z,15.80
2019-02-17T14:11:54.144Z,15.80
2019-02-17T14:14:23.097Z,15.70
2019-02-17T14:16:52.031Z,15.70
2019-02-17T14:19:21.291Z,15.60
2019-02-17T14:21:50.262Z,15.50
2019-02-17T14:24:19.235Z,15.50
2019-02-17T14:26:48.432Z,15.40
2019-02-17T14:29:17.442Z,15.20
2019-02-17T14:31:46.578Z,15.10
2019-02-17T14:34:15.791Z,15.00
2019-02-17T14:36:44.722Z,14.90
2019-02-17T14:39:13.759Z,14.80
2019-02-17T14:41:42.943Z,14.80
2019-02-17T14:44:12.303Z,14.70
2019-02-17T14:46:41.271Z,14.60
2019-02-17T14:49:10.326Z,14.60
2019-02-17T14:51:39.294Z,14.60
2019-02-17T14:54:08.251Z,14.50
2019-02-17T14:56:37.449Z,14.30
2019-02-17T14:59:06.401Z,14.20
2019-02-17T15:01:35.354Z,14.10
2019-02-17T15:04:08.769Z,14.00
2019-02-17T15:06:35.090Z,13.80
2019-02-17T15:09:06.842Z,13.70
2019-02-17T15:11:35.823Z,13.50
2019-02-17T15:14:04.856Z,13.40
2019-02-17T15:16:33.890Z,13.30
2019-02-17T15:19:02.915Z,13.10
2019-02-17T15:21:31.934Z,13.00
2019-02-17T15:24:00.938Z,12.90
2019-02-17T15:26:30.232Z,12.80
2019-02-17T15:28:59.179Z,12.70
2019-02-17T15:31:28.209Z,12.60
2019-02-17T15:33:57.147Z,12.30
2019-02-17T15:36:26.378Z,12.10
2019-02-17T15:38:55.421Z,12.00
2019-02-17T15:41:24.676Z,11.80
2019-02-17T15:43:53.643Z,11.60
2019-02-17T15:46:22.553Z,11.50
2019-02-17T15:48:51.494Z,11.40
2019-02-17T15:51:20.497Z,11.20
2019-02-17T15:53:49.491Z,11.00
2019-02-17T15:56:18.463Z,10.80
2019-02-17T15:58:47.407Z,10.60
2019-02-17T16:01:16.734Z,10.50
2019-02-17T16:03:45.673Z,10.30
2019-02-17T16:06:14.823Z,10.10
2019-02-17T16:08:43.786Z,9.80
2019-02-17T16:11:12.979Z,9.60
2019-02-17T16:13:41.915Z,9.50
2019-02-17T16:16:10.855Z,9.30
2019-02-17T16:18:39.806Z,9.10
2019-02-17T16:21:08.775Z,8.90
2019-02-17T16:23:37.718Z,8.70
2019-02-17T16:26:06.671Z,8.60
2019-02-17T16:28:35.594Z,8.50
2019-02-17T16:31:04.626Z,8.40
2019-02-17T16:33:33.787Z,8.20
2019-02-17T16:36:02.999Z,8.10
2019-02-17T16:38:31.938Z,7.90
2019-02-17T16:41:00.993Z,7.80
2019-02-17T16:43:29.960Z,7.60
2019-02-17T16:45:58.984Z,7.50
2019-02-17T16:48:28.243Z,7.40
2019-02-17T16:50:57.266Z,7.30
2019-02-17T16:53:26.227Z,7.10
2019-02-17T16:55:55.762Z,7.00
2019-02-17T16:58:24.863Z,6.90
2019-02-17T17:00:53.906Z,6.80
2019-02-17T17:03:23.096Z,6.70
2019-02-17T17:05:52.138Z,6.60
2019-02-17T17:08:21.139Z,6.50
2019-02-17T17:10:50.160Z,6.40
2019-02-17T17:13:22.107Z,6.30
2019-02-17T17:15:51.086Z,6.20
2019-02-17T17:18:20.108Z,6.10
2019-02-17T17:20:49.118Z,5.90
2019-02-17T17:23:18.147Z,5.80
2019-02-17T17:25:47.489Z,5.70
2019-02-17T17:28:16.447Z,5.60
2019-02-17T17:30:45.634Z,5.40
2019-02-17T17:33:14.585Z,5.40
2019-02-17T17:35:43.592Z,5.50
2019-02-17T17:38:12.860Z,5.50
2019-02-17T17:40:41.919Z,5.40
2019-02-17T17:43:10.914Z,5.30
2019-02-17T17:45:39.847Z,5.20
2019-02-17T17:48:08.838Z,5.00
2019-02-17T17:50:38.019Z,4.90
2019-02-17T17:53:07.042Z,4.80
2019-02-17T17:55:36.172Z,4.60
2019-02-17T17:58:05.134Z,4.60
2019-02-17T18:00:35.591Z,4.40
2019-02-17T18:03:05.911Z,4.40
2019-02-17T18:05:35.147Z,4.30
2019-02-17T18:08:04.110Z,4.20
2019-02-17T18:10:33.050Z,4.20
2019-02-17T18:13:02.060Z,4.20
2019-02-17T18:15:31.036Z,4.10
2019-02-17T18:18:00.023Z,4.10
2019-02-17T18:20:29.213Z,4.00
2019-02-17T18:22:58.150Z,3.90
2019-02-17T18:25:28.622Z,3.90
2019-02-17T18:27:57.814Z,3.90
2019-02-17T18:30:26.827Z,3.90
2019-02-17T18:32:56.416Z,3.80
2019-02-17T18:35:25.366Z,3.80
2019-02-17T18:37:54.409Z,3.70
2019-02-17T18:40:23.356Z,3.70
2019-02-17T18:42:52.391Z,3.60
2019-02-17T18:45:21.390Z,3.50
2019-02-17T18:47:50.354Z,3.50
2019-02-17T18:50:19.371Z,3.50
2019-02-17T18:52:48.336Z,3.50
2019-02-17T18:55:17.726Z,3.40
2019-02-17T18:57:50.821Z,3.30
2019-02-17T19:00:17.754Z,3.30
2019-02-17T19:02:46.726Z,3.20
2019-02-17T19:05:16.248Z,3.20
2019-02-17T19:07:45.291Z,3.20
2019-02-17T19:10:14.331Z,3.20
2019-02-17T19:12:43.371Z,3.10
2019-02-17T19:15:13.021Z,3.00
2019-02-17T19:17:42.365Z,2.90
2019-02-17T19:20:13.562Z,2.80
2019-02-17T19:22:42.585Z,2.70
2019-02-17T19:25:12.106Z,2.60
2019-02-17T19:27:41.079Z,2.60
2019-02-17T19:30:11.350Z,2.60
2019-02-17T19:32:40.376Z,2.60
2019-02-17T19:35:10.878Z,2.50
2019-02-17T19:37:40.128Z,2.50
2019-02-17T19:40:10.090Z,2.40
2019-02-17T19:42:39.083Z,2.30
2019-02-17T19:45:09.275Z,2.30
2019-02-17T19:47:38.565Z,2.20
2019-02-17T19:50:08.907Z,2.20
2019-02-17T19:52:37.876Z,2.20
2019-02-17T19:55:07.116Z,2.20
2019-02-17T19:57:36.085Z,2.10
2019-02-17T20:00:05.591Z,2.10
2019-02-17T20:03:12.238Z,2.20
2019-02-17T20:05:51.627Z,2.20
2019-02-17T20:08:15.686Z,2.20
2019-02-17T20:10:44.615Z,2.10
2019-02-17T20:13:13.592Z,2.10
2019-02-17T20:15:42.522Z,2.00
2019-02-17T20:18:14.531Z,2.00
2019-02-17T20:20:43.534Z,2.00
2019-02-17T20:23:12.579Z,2.00
2019-02-17T20:25:41.574Z,2.00
2019-02-17T20:28:10.589Z,1.90
2019-02-17T20:30:40.035Z,1.90
2019-02-17T20:33:09.058Z,1.90
2019-02-17T20:35:38.203Z,1.90
2019-02-17T20:38:07.190Z,1.90
2019-02-17T20:40:36.130Z,1.80
2019-02-17T20:43:05.102Z,1.80
2019-02-17T20:45:34.275Z,1.80
2019-02-17T20:48:03.376Z,1.80
2019-02-17T20:50:32.618Z,1.80
2019-02-17T20:53:01.878Z,1.80
2019-02-17T20:55:30.901Z,1.80
2019-02-17T20:57:59.841Z,1.80
2019-02-17T21:00:29.344Z,1.80
2019-02-17T21:02:58.619Z,1.70
2019-02-17T21:05:27.689Z,1.80
2019-02-17T21:07:56.679Z,1.80
2019-02-17T21:10:25.737Z,1.80
2019-02-17T21:12:55.193Z,1.80
2019-02-17T21:15:24.548Z,1.70
2019-02-17T21:17:53.569Z,1.70
2019-02-17T21:20:41.838Z,1.70
2019-02-17T21:23:11.196Z,1.70
2019-02-17T21:25:40.157Z,1.80
2019-02-17T21:28:09.199Z,1.70
2019-02-17T21:30:38.165Z,1.70
2019-02-17T21:33:07.207Z,1.70
2019-02-17T21:35:36.171Z,1.70
2019-02-17T21:38:05.157Z,1.60
2019-02-17T21:40:34.374Z,1.60
2019-02-17T21:43:03.373Z,1.60
2019-02-17T21:45:32.355Z,1.60
2019-02-17T21:48:01.228Z,1.60
2019-02-17T21:50:30.195Z,1.60
2019-02-17T21:52:59.179Z,1.60
2019-02-17T21:55:28.147Z,1.50
2019-02-17T21:57:57.181Z,1.50
2019-02-17T22:00:26.228Z,1.50
2019-02-17T22:02:55.254Z,1.50
2019-02-17T22:05:24.581Z,1.50
2019-02-17T22:07:53.518Z,1.40
2019-02-17T22:10:22.790Z,1.40
2019-02-17T22:12:51.795Z,1.40
2019-02-17T22:15:20.829Z,1.30
2019-02-17T22:17:49.847Z,1.30
2019-02-17T22:20:19.146Z,1.10
2019-02-17T22:22:48.170Z,1.10
2019-02-17T22:25:18.201Z,1.20
2019-02-17T22:27:47.496Z,1.20
2019-02-17T22:30:16.534Z,1.20
2019-02-17T22:32:45.538Z,1.20
2019-02-17T22:35:14.567Z,1.20
2019-02-17T22:37:44.066Z,1.20
2019-02-17T22:40:13.319Z,1.20
2019-02-17T22:42:42.465Z,1.10
2019-02-17T22:45:11.587Z,1.10
2019-02-17T22:47:40.431Z,1.00
2019-02-17T22:50:09.889Z,1.00
2019-02-17T22:52:38.839Z,1.00
2019-02-17T22:55:12.286Z,1.00
2019-02-17T22:57:41.789Z,1.00
2019-02-17T23:00:19.367Z,0.90
2019-02-17T23:02:48.739Z,0.90
2019-02-17T23:05:17.772Z,0.90
2019-02-17T23:07:47.899Z,0.90
2019-02-17T23:10:16.892Z,0.90
2019-02-17T23:12:45.829Z,1.00
2019-02-17T23:15:14.969Z,1.00
2019-02-17T23:17:44.240Z,0.90
2019-02-17T23:20:13.599Z,0.90
2019-02-17T23:22:42.581Z,0.90
2019-02-17T23:25:11.686Z,0.90
2019-02-17T23:27:40.650Z,0.90
2019-02-17T23:30:09.762Z,0.90
2019-02-17T23:32:38.971Z,0.90
2019-02-17T23:35:08.259Z,0.90
2019-02-17T23:37:37.282Z,0.90
2019-02-17T23:40:07.361Z,1.00
2019-02-17T23:42:36.404Z,0.90
2019-02-17T23:45:05.759Z,1.00
2019-02-17T23:47:34.706Z,0.90
2019-02-17T23:50:04.095Z,0.90
2019-02-17T23:52:33.100Z,0.80
2019-02-17T23:55:02.193Z,0.80
2019-02-17T23:57:31.199Z,0.80
